sensor_id;sensor_type;location;lat;lon;timestamp;pressure;altitude;pressure_sealevel;temperature;humidity
50977;BME280;36992;48.200;12.418;2022-12-24T00:00:39;96145.16;;;13.26;64.34
50977;BME280;36992;48.200;12.418;2022-12-24T00:03:05;96153.28;;;13.26;64.49
50977;BME280;36992;48.200;12.418;2022-12-24T00:05:32;96144.03;;;13.27;64.03
50977;BME280;36992;48.200;12.418;2022-12-24T00:07:59;96139.41;;;13.28;64.40
50977;BME280;36992;48.200;12.418;2022-12-24T00:10:25;96144.03;;;13.27;64.15
50977;BME280;36992;48.200;12.418;2022-12-24T00:12:52;96155.63;;;13.28;63.89
50977;BME280;36992;48.200;12.418;2022-12-24T00:15:18;96146.91;;;13.31;63.81
50977;BME280;36992;48.200;12.418;2022-12-24T00:17:46;96156.91;;;13.30;63.81
50977;BME280;36992;48.200;12.418;2022-12-24T00:20:12;96166.16;;;13.29;63.50
50977;BME280;36992;48.200;12.418;2022-12-24T00:22:39;96179.53;;;13.26;63.71
50977;BME280;36992;48.200;12.418;2022-12-24T00:25:06;96166.81;;;13.26;63.08
50977;BME280;36992;48.200;12.418;2022-12-24T00:27:32;96170.13;;;13.23;63.11
50977;BME280;36992;48.200;12.418;2022-12-24T00:29:59;96174.13;;;13.17;62.91
50977;BME280;36992;48.200;12.418;2022-12-24T00:32:25;96166.97;;;13.21;62.82
50977;BME280;36992;48.200;12.418;2022-12-24T00:34:53;96169.81;;;13.25;62.46
50977;BME280;36992;48.200;12.418;2022-12-24T00:37:20;96187.03;;;13.20;62.20
50977;BME280;36992;48.200;12.418;2022-12-24T00:39:46;96175.56;;;13.23;62.61
50977;BME280;36992;48.200;12.418;2022-12-24T00:42:13;96190.66;;;13.24;62.55
50977;BME280;36992;48.200;12.418;2022-12-24T00:44:39;96199.88;;;13.23;62.61
50977;BME280;36992;48.200;12.418;2022-12-24T00:47:06;96181.94;;;13.18;62.78
50977;BME280;36992;48.200;12.418;2022-12-24T00:49:32;96190.97;;;13.22;63.16
50977;BME280;36992;48.200;12.418;2022-12-24T00:52:00;96194.63;;;13.27;63.09
50977;BME280;36992;48.200;12.418;2022-12-24T00:54:27;96186.84;;;13.25;63.26
50977;BME280;36992;48.200;12.418;2022-12-24T00:56:54;96201.47;;;13.24;63.19
50977;BME280;36992;48.200;12.418;2022-12-24T00:59:20;96205.31;;;13.23;63.22
50977;BME280;36992;48.200;12.418;2022-12-24T01:01:47;96233.47;;;13.22;63.64
50977;BME280;36992;48.200;12.418;2022-12-24T01:04:13;96230.31;;;13.20;63.11
50977;BME280;36992;48.200;12.418;2022-12-24T01:06:57;96213.44;;;13.14;61.87
50977;BME280;36992;48.200;12.418;2022-12-24T01:09:25;96209.28;;;13.17;60.90
50977;BME280;36992;48.200;12.418;2022-12-24T01:11:52;96198.63;;;13.12;60.84
50977;BME280;36992;48.200;12.418;2022-12-24T01:14:18;96201.34;;;13.12;61.06
50977;BME280;36992;48.200;12.418;2022-12-24T01:16:45;96205.63;;;13.13;61.19
50977;BME280;36992;48.200;12.418;2022-12-24T01:19:11;96216.44;;;13.13;61.06
50977;BME280;36992;48.200;12.418;2022-12-24T01:21:38;96219.16;;;13.13;61.05
50977;BME280;36992;48.200;12.418;2022-12-24T01:24:05;96222.50;;;13.09;61.05
50977;BME280;36992;48.200;12.418;2022-12-24T01:26:33;96216.78;;;13.11;60.97
50977;BME280;36992;48.200;12.418;2022-12-24T01:28:59;96226.81;;;13.02;60.27
50977;BME280;36992;48.200;12.418;2022-12-24T01:31:26;96233.94;;;13.06;60.87
50977;BME280;36992;48.200;12.418;2022-12-24T01:33:52;96226.19;;;13.05;61.20
50977;BME280;36992;48.200;12.418;2022-12-24T01:36:19;96221.88;;;13.04;61.30
50977;BME280;36992;48.200;12.418;2022-12-24T01:38:45;96231.59;;;13.05;61.46
50977;BME280;36992;48.200;12.418;2022-12-24T01:41:16;96235.56;;;13.07;61.63
50977;BME280;36992;48.200;12.418;2022-12-24T01:44:19;96238.41;;;13.11;61.88
50977;BME280;36992;48.200;12.418;2022-12-24T01:46:47;96233.94;;;13.06;61.98
50977;BME280;36992;48.200;12.418;2022-12-24T01:49:15;96244.75;;;13.06;62.19
50977;BME280;36992;48.200;12.418;2022-12-24T01:51:44;96251.78;;;13.07;62.14
50977;BME280;36992;48.200;12.418;2022-12-24T01:54:14;96265.78;;;13.09;62.36
50977;BME280;36992;48.200;12.418;2022-12-24T01:56:45;96254.97;;;13.09;62.49
50977;BME280;36992;48.200;12.418;2022-12-24T01:59:13;96268.78;;;13.08;62.53
50977;BME280;36992;48.200;12.418;2022-12-24T02:01:43;96266.91;;;13.08;62.55
50977;BME280;36992;48.200;12.418;2022-12-24T02:04:15;96278.19;;;13.11;62.62
50977;BME280;36992;48.200;12.418;2022-12-24T02:06:44;96268.00;;;13.07;62.68
50977;BME280;36992;48.200;12.418;2022-12-24T02:09:10;96274.19;;;13.08;62.75
50977;BME280;36992;48.200;12.418;2022-12-24T02:11:38;96280.41;;;13.08;62.63
50977;BME280;36992;48.200;12.418;2022-12-24T02:14:08;96282.31;;;13.08;62.59
50977;BME280;36992;48.200;12.418;2022-12-24T02:16:42;96285.16;;;13.12;62.52
50977;BME280;36992;48.200;12.418;2022-12-24T02:19:35;96282.47;;;13.12;62.51
50977;BME280;36992;48.200;12.418;2022-12-24T02:22:13;96291.69;;;13.11;62.61
50977;BME280;36992;48.200;12.418;2022-12-24T02:25:07;96290.25;;;13.13;62.39
50977;BME280;36992;48.200;12.418;2022-12-24T02:27:43;96295.97;;;13.12;62.63
50977;BME280;36992;48.200;12.418;2022-12-24T02:30:19;96301.41;;;13.12;62.60
50977;BME280;36992;48.200;12.418;2022-12-24T02:33:03;96309.50;;;13.12;62.43
50977;BME280;36992;48.200;12.418;2022-12-24T02:35:38;96305.22;;;13.11;62.46
50977;BME280;36992;48.200;12.418;2022-12-24T02:38:13;96309.50;;;13.12;62.46
50977;BME280;36992;48.200;12.418;2022-12-24T02:40:46;96309.81;;;13.10;62.49
50977;BME280;36992;48.200;12.418;2022-12-24T02:43:18;96303.63;;;13.09;62.43
50977;BME280;36992;48.200;12.418;2022-12-24T02:45:51;96307.44;;;13.08;62.18
50977;BME280;36992;48.200;12.418;2022-12-24T02:48:20;96310.00;;;13.05;62.04
50977;BME280;36992;48.200;12.418;2022-12-24T02:51:00;96322.09;;;13.07;62.07
50977;BME280;36992;48.200;12.418;2022-12-24T02:53:27;96319.53;;;13.02;61.92
50977;BME280;36992;48.200;12.418;2022-12-24T02:56:02;96315.72;;;13.03;62.17
50977;BME280;36992;48.200;12.418;2022-12-24T02:58:40;96323.03;;;13.03;62.11
50977;BME280;36992;48.200;12.418;2022-12-24T03:01:15;96324.13;;;13.02;61.89
50977;BME280;36992;48.200;12.418;2022-12-24T03:03:53;96326.84;;;13.02;61.76
50977;BME280;36992;48.200;12.418;2022-12-24T03:06:33;96318.25;;;13.00;62.09
50977;BME280;36992;48.200;12.418;2022-12-24T03:09:07;96319.69;;;12.97;61.90
50977;BME280;36992;48.200;12.418;2022-12-24T03:11:42;96331.28;;;12.98;61.78
50977;BME280;36992;48.200;12.418;2022-12-24T03:14:10;96325.25;;;12.92;61.51
50977;BME280;36992;48.200;12.418;2022-12-24T03:16:39;96330.19;;;12.90;61.40
50977;BME280;36992;48.200;12.418;2022-12-24T03:19:07;96326.97;;;12.88;61.43
50977;BME280;36992;48.200;12.418;2022-12-24T03:21:34;96321.91;;;12.86;61.42
50977;BME280;36992;48.200;12.418;2022-12-24T03:24:03;96318.72;;;12.84;61.33
50977;BME280;36992;48.200;12.418;2022-12-24T03:26:31;96314.91;;;12.85;61.13
50977;BME280;36992;48.200;12.418;2022-12-24T03:28:59;96322.06;;;12.81;60.96
50977;BME280;36992;48.200;12.418;2022-12-24T03:31:25;96323.66;;;12.82;60.94
50977;BME280;36992;48.200;12.418;2022-12-24T03:33:53;96324.75;;;12.81;61.06
50977;BME280;36992;48.200;12.418;2022-12-24T03:36:20;96335.06;;;12.79;61.18
50977;BME280;36992;48.200;12.418;2022-12-24T03:38:49;96338.44;;;12.76;60.88
50977;BME280;36992;48.200;12.418;2022-12-24T03:41:16;96339.84;;;12.73;60.85
50977;BME280;36992;48.200;12.418;2022-12-24T03:43:42;96346.84;;;12.74;60.79
50977;BME280;36992;48.200;12.418;2022-12-24T03:46:09;96343.66;;;12.72;60.71
50977;BME280;36992;48.200;12.418;2022-12-24T03:48:35;96363.19;;;12.69;60.56
50977;BME280;36992;48.200;12.418;2022-12-24T03:51:03;96362.59;;;12.72;60.99
50977;BME280;36992;48.200;12.418;2022-12-24T03:53:30;96365.91;;;12.69;60.70
50977;BME280;36992;48.200;12.418;2022-12-24T03:55:57;96376.72;;;12.69;60.87
50977;BME280;36992;48.200;12.418;2022-12-24T03:58:24;96377.81;;;12.68;60.67
50977;BME280;36992;48.200;12.418;2022-12-24T04:00:51;96382.94;;;12.70;60.75
50977;BME280;36992;48.200;12.418;2022-12-24T04:03:17;96380.53;;;12.68;60.61
50977;BME280;36992;48.200;12.418;2022-12-24T04:05:45;96379.25;;;12.65;60.75
50977;BME280;36992;48.200;12.418;2022-12-24T04:08:12;96370.53;;;12.68;60.83
50977;BME280;36992;48.200;12.418;2022-12-24T04:10:39;96378.94;;;12.67;60.94
50977;BME280;36992;48.200;12.418;2022-12-24T04:13:05;96367.31;;;12.66;60.37
50977;BME280;36992;48.200;12.418;2022-12-24T04:15:32;96378.94;;;12.67;60.63
50977;BME280;36992;48.200;12.418;2022-12-24T04:17:59;96391.66;;;12.66;60.64
50977;BME280;36992;48.200;12.418;2022-12-24T04:20:25;96398.97;;;12.66;60.30
50977;BME280;36992;48.200;12.418;2022-12-24T04:22:52;96397.38;;;12.65;60.03
50977;BME280;36992;48.200;12.418;2022-12-24T04:25:20;96395.16;;;12.67;60.26
50977;BME280;36992;48.200;12.418;2022-12-24T04:27:47;96397.38;;;12.65;60.22
50977;BME280;36992;48.200;12.418;2022-12-24T04:30:13;96399.75;;;12.66;60.14
50977;BME280;36992;48.200;12.418;2022-12-24T04:32:40;96400.56;;;12.67;60.08
50977;BME280;36992;48.200;12.418;2022-12-24T04:35:07;96407.09;;;12.66;59.78
50977;BME280;36992;48.200;12.418;2022-12-24T04:37:34;96401.19;;;12.64;59.60
50977;BME280;36992;48.200;12.418;2022-12-24T04:40:00;96399.75;;;12.66;59.73
50977;BME280;36992;48.200;12.418;2022-12-24T04:42:28;96404.53;;;12.70;59.90
50977;BME280;36992;48.200;12.418;2022-12-24T04:44:55;96396.75;;;12.68;59.65
50977;BME280;36992;48.200;12.418;2022-12-24T04:47:21;96405.16;;;12.66;59.41
50977;BME280;36992;48.200;12.418;2022-12-24T04:49:48;96403.25;;;12.67;59.69
50977;BME280;36992;48.200;12.418;2022-12-24T04:52:15;96405.97;;;12.67;59.56
50977;BME280;36992;48.200;12.418;2022-12-24T04:54:41;96396.56;;;12.64;59.42
50977;BME280;36992;48.200;12.418;2022-12-24T04:57:08;96394.34;;;12.66;59.65
50977;BME280;36992;48.200;12.418;2022-12-24T04:59:36;96393.25;;;12.67;59.42
50977;BME280;36992;48.200;12.418;2022-12-24T05:02:02;96401.97;;;12.64;59.37
50977;BME280;36992;48.200;12.418;2022-12-24T05:04:29;96408.97;;;12.65;59.17
50977;BME280;36992;48.200;12.418;2022-12-24T05:06:56;96400.69;;;12.62;59.21
50977;BME280;36992;48.200;12.418;2022-12-24T05:09:22;96412.00;;;12.64;59.14
50977;BME280;36992;48.200;12.418;2022-12-24T05:11:49;96418.84;;;12.61;59.04
50977;BME280;36992;48.200;12.418;2022-12-24T05:14:15;96414.22;;;12.62;59.43
50977;BME280;36992;48.200;12.418;2022-12-24T05:16:43;96420.41;;;12.62;59.32
50977;BME280;36992;48.200;12.418;2022-12-24T05:19:10;96418.03;;;12.61;58.97
50977;BME280;36992;48.200;12.418;2022-12-24T05:21:36;96421.03;;;12.59;59.06
50977;BME280;36992;48.200;12.418;2022-12-24T05:24:03;96428.34;;;12.59;59.04
50977;BME280;36992;48.200;12.418;2022-12-24T05:26:48;96421.84;;;12.60;58.64
50977;BME280;36992;48.200;12.418;2022-12-24T05:29:15;96418.66;;;12.58;58.71
50977;BME280;36992;48.200;12.418;2022-12-24T05:31:44;96424.53;;;12.60;58.76
50977;BME280;36992;48.200;12.418;2022-12-24T05:34:11;96425.66;;;12.59;58.29
50977;BME280;36992;48.200;12.418;2022-12-24T05:36:38;96428.34;;;12.59;58.50
50977;BME280;36992;48.200;12.418;2022-12-24T05:39:06;96428.34;;;12.59;58.32
50977;BME280;36992;48.200;12.418;2022-12-24T05:41:32;96425.31;;;12.60;58.28
50977;BME280;36992;48.200;12.418;2022-12-24T05:43:59;96431.22;;;12.62;58.73
50977;BME280;36992;48.200;12.418;2022-12-24T05:46:25;96427.25;;;12.60;58.05
50977;BME280;36992;48.200;12.418;2022-12-24T05:48:53;96432.50;;;12.65;58.10
50977;BME280;36992;48.200;12.418;2022-12-24T05:51:21;96439.03;;;12.64;57.99
50977;BME280;36992;48.200;12.418;2022-12-24T05:53:49;96453.03;;;12.66;57.98
50977;BME280;36992;48.200;12.418;2022-12-24T05:56:18;96463.81;;;12.66;57.61
50977;BME280;36992;48.200;12.418;2022-12-24T05:58:45;96478.31;;;12.70;57.90
50977;BME280;36992;48.200;12.418;2022-12-24T06:01:13;96484.81;;;12.69;57.73
50977;BME280;36992;48.200;12.418;2022-12-24T06:03:40;96495.00;;;12.72;57.93
50977;BME280;36992;48.200;12.418;2022-12-24T06:06:10;96474.38;;;12.76;58.37
50977;BME280;36992;48.200;12.418;2022-12-24T06:08:37;96495.50;;;12.74;58.32
50977;BME280;36992;48.200;12.418;2022-12-24T06:11:06;96494.38;;;12.75;58.39
50977;BME280;36992;48.200;12.418;2022-12-24T06:13:33;96517.13;;;12.74;58.24
50977;BME280;36992;48.200;12.418;2022-12-24T06:16:05;96509.97;;;12.78;58.62
50977;BME280;36992;48.200;12.418;2022-12-24T06:18:33;96518.22;;;12.73;58.81
50977;BME280;36992;48.200;12.418;2022-12-24T06:21:00;96508.53;;;12.72;58.79
50977;BME280;36992;48.200;12.418;2022-12-24T06:23:29;96512.81;;;12.73;58.90
50977;BME280;36992;48.200;12.418;2022-12-24T06:25:57;96495.00;;;12.72;58.74
50977;BME280;36992;48.200;12.418;2022-12-24T06:28:25;96505.34;;;12.70;58.50
50977;BME280;36992;48.200;12.418;2022-12-24T06:30:51;96513.47;;;12.70;58.53
50977;BME280;36992;48.200;12.418;2022-12-24T06:33:18;96514.53;;;12.69;58.70
50977;BME280;36992;48.200;12.418;2022-12-24T06:35:45;96526.97;;;12.70;58.91
50977;BME280;36992;48.200;12.418;2022-12-24T06:38:12;96546.97;;;12.69;59.14
50977;BME280;36992;48.200;12.418;2022-12-24T06:40:41;96556.69;;;12.70;58.97
50977;BME280;36992;48.200;12.418;2022-12-24T06:43:08;96555.34;;;12.59;57.57
50977;BME280;36992;48.200;12.418;2022-12-24T06:45:35;96559.34;;;12.61;57.81
50977;BME280;36992;48.200;12.418;2022-12-24T06:48:01;96558.97;;;12.54;57.74
50977;BME280;36992;48.200;12.418;2022-12-24T06:50:28;96548.59;;;12.47;57.84
50977;BME280;36992;48.200;12.418;2022-12-24T06:52:55;96556.84;;;12.42;58.30
50977;BME280;36992;48.200;12.418;2022-12-24T06:55:21;96563.28;;;12.32;58.96
50977;BME280;36992;48.200;12.418;2022-12-24T06:57:49;96557.81;;;12.23;59.44
50977;BME280;36992;48.200;12.418;2022-12-24T07:00:16;96569.53;;;12.19;59.66
50977;BME280;36992;48.200;12.418;2022-12-24T07:02:43;96562.38;;;12.14;59.83
50977;BME280;36992;48.200;12.418;2022-12-24T07:05:11;96554.88;;;12.11;60.08
50977;BME280;36992;48.200;12.418;2022-12-24T07:07:39;96550.69;;;12.05;59.65
50977;BME280;36992;48.200;12.418;2022-12-24T07:10:07;96554.75;;;12.02;59.83
50977;BME280;36992;48.200;12.418;2022-12-24T07:12:35;96553.16;;;12.01;60.21
50977;BME280;36992;48.200;12.418;2022-12-24T07:15:04;96562.84;;;12.02;60.17
50977;BME280;36992;48.200;12.418;2022-12-24T07:17:31;96552.16;;;11.97;59.83
50977;BME280;36992;48.200;12.418;2022-12-24T07:19:57;96565.38;;;11.98;59.96
50977;BME280;36992;48.200;12.418;2022-12-24T07:22:24;96560.59;;;11.95;59.93
50977;BME280;36992;48.200;12.418;2022-12-24T07:24:50;96579.16;;;11.97;59.97
50977;BME280;36992;48.200;12.418;2022-12-24T07:27:17;96581.88;;;11.97;60.31
50977;BME280;36992;48.200;12.418;2022-12-24T07:29:44;96595.38;;;11.97;60.42
50977;BME280;36992;48.200;12.418;2022-12-24T07:32:11;96591.25;;;11.99;60.41
50977;BME280;36992;48.200;12.418;2022-12-24T07:34:38;96589.66;;;11.98;60.31
50977;BME280;36992;48.200;12.418;2022-12-24T07:37:05;96603.66;;;12.00;60.37
50977;BME280;36992;48.200;12.418;2022-12-24T07:39:32;96605.28;;;12.01;60.12
50977;BME280;36992;48.200;12.418;2022-12-24T07:41:59;96609.56;;;12.03;60.27
50977;BME280;36992;48.200;12.418;2022-12-24T07:44:25;96607.66;;;12.03;60.41
50977;BME280;36992;48.200;12.418;2022-12-24T07:46:52;96618.19;;;12.05;60.28
50977;BME280;36992;48.200;12.418;2022-12-24T07:49:20;96620.28;;;12.08;60.46
50977;BME280;36992;48.200;12.418;2022-12-24T07:51:46;96618.66;;;12.07;60.73
50977;BME280;36992;48.200;12.418;2022-12-24T07:54:13;96617.59;;;12.08;60.60
50977;BME280;36992;48.200;12.418;2022-12-24T07:56:41;96618.06;;;12.10;60.93
50977;BME280;36992;48.200;12.418;2022-12-24T07:59:07;96632.06;;;12.12;60.75
50977;BME280;36992;48.200;12.418;2022-12-24T08:01:35;96641.75;;;12.13;60.71
50977;BME280;36992;48.200;12.418;2022-12-24T08:04:01;96650.66;;;12.13;60.66
50977;BME280;36992;48.200;12.418;2022-12-24T08:06:29;96644.16;;;12.14;60.34
50977;BME280;36992;48.200;12.418;2022-12-24T08:08:56;96647.16;;;12.13;60.08
50977;BME280;36992;48.200;12.418;2022-12-24T08:11:22;96646.38;;;12.12;60.04
50977;BME280;36992;48.200;12.418;2022-12-24T08:13:49;96646.38;;;12.12;59.73
50977;BME280;36992;48.200;12.418;2022-12-24T08:16:15;96649.38;;;12.11;59.25
50977;BME280;36992;48.200;12.418;2022-12-24T08:18:42;96650.47;;;12.10;59.25
50977;BME280;36992;48.200;12.418;2022-12-24T08:21:08;96650.47;;;12.10;58.69
50977;BME280;36992;48.200;12.418;2022-12-24T08:23:36;96652.88;;;12.11;59.35
50977;BME280;36992;48.200;12.418;2022-12-24T08:26:06;96647.47;;;12.11;59.36
50977;BME280;36992;48.200;12.418;2022-12-24T08:28:33;96655.88;;;12.10;59.33
50977;BME280;36992;48.200;12.418;2022-12-24T08:31:00;96651.59;;;12.09;59.10
50977;BME280;36992;48.200;12.418;2022-12-24T08:33:27;96652.38;;;12.09;59.12
50977;BME280;36992;48.200;12.418;2022-12-24T08:35:55;96655.88;;;12.10;58.73
50977;BME280;36992;48.200;12.418;2022-12-24T08:38:22;96655.38;;;12.08;58.40
50977;BME280;36992;48.200;12.418;2022-12-24T08:40:51;96656.66;;;12.10;58.42
50977;BME280;36992;48.200;12.418;2022-12-24T08:43:18;96664.56;;;12.07;57.97
50977;BME280;36992;48.200;12.418;2022-12-24T08:45:46;96664.56;;;12.07;57.89
50977;BME280;36992;48.200;12.418;2022-12-24T08:48:13;96675.38;;;12.07;57.87
50977;BME280;36992;48.200;12.418;2022-12-24T08:50:40;96680.75;;;12.07;57.65
50977;BME280;36992;48.200;12.418;2022-12-24T08:53:07;96675.38;;;12.07;57.96
50977;BME280;36992;48.200;12.418;2022-12-24T08:55:34;96676.19;;;12.07;58.14
50977;BME280;36992;48.200;12.418;2022-12-24T08:58:02;96683.97;;;12.09;57.67
50977;BME280;36992;48.200;12.418;2022-12-24T09:00:30;96685.88;;;12.08;57.87
50977;BME280;36992;48.200;12.418;2022-12-24T09:02:57;96693.47;;;12.06;57.43
50977;BME280;36992;48.200;12.418;2022-12-24T09:05:23;96689.97;;;12.06;56.21
50977;BME280;36992;48.200;12.418;2022-12-24T09:07:50;96704.56;;;12.05;56.49
50977;BME280;36992;48.200;12.418;2022-12-24T09:10:17;96700.28;;;12.04;55.73
50977;BME280;36992;48.200;12.418;2022-12-24T09:12:43;96708.38;;;12.04;56.39
50977;BME280;36992;48.200;12.418;2022-12-24T09:15:11;96714.78;;;12.08;55.85
50977;BME280;36992;48.200;12.418;2022-12-24T09:17:39;96702.97;;;12.04;55.69
50977;BME280;36992;48.200;12.418;2022-12-24T09:20:07;96712.38;;;12.06;54.45
50977;BME280;36992;48.200;12.418;2022-12-24T09:22:34;96707.75;;;12.07;54.54
50977;BME280;36992;48.200;12.418;2022-12-24T09:25:02;96716.97;;;12.06;54.46
50977;BME280;36992;48.200;12.418;2022-12-24T09:27:29;96714.78;;;12.08;53.38
50977;BME280;36992;48.200;12.418;2022-12-24T09:29:56;96710.97;;;12.09;53.67
50977;BME280;36992;48.200;12.418;2022-12-24T09:32:24;96723.88;;;12.12;54.23
50977;BME280;36992;48.200;12.418;2022-12-24T09:34:50;96723.09;;;12.11;53.03
50977;BME280;36992;48.200;12.418;2022-12-24T09:37:17;96723.38;;;12.10;51.60
50977;BME280;36992;48.200;12.418;2022-12-24T09:39:43;96724.97;;;12.11;52.31
50977;BME280;36992;48.200;12.418;2022-12-24T09:42:24;96719.38;;;12.21;53.69
50977;BME280;36992;48.200;12.418;2022-12-24T09:44:59;96721.75;;;12.23;52.96
50977;BME280;36992;48.200;12.418;2022-12-24T09:47:28;96733.34;;;12.23;52.58
50977;BME280;36992;48.200;12.418;2022-12-24T09:50:00;96734.94;;;12.24;51.90
50977;BME280;36992;48.200;12.418;2022-12-24T09:52:32;96732.75;;;12.26;52.92
50977;BME280;36992;48.200;12.418;2022-12-24T09:55:06;96733.75;;;12.31;53.12
50977;BME280;36992;48.200;12.418;2022-12-24T09:57:39;96736.75;;;12.29;50.85
50977;BME280;36992;48.200;12.418;2022-12-24T10:00:15;96732.81;;;12.35;52.48
50977;BME280;36992;48.200;12.418;2022-12-24T10:02:46;96740.16;;;12.35;51.79
50977;BME280;36992;48.200;12.418;2022-12-24T10:05:13;96730.63;;;12.37;51.70
50977;BME280;36992;48.200;12.418;2022-12-24T10:07:46;96735.13;;;12.42;53.28
50977;BME280;36992;48.200;12.418;2022-12-24T10:10:20;96737.34;;;12.40;51.93
50977;BME280;36992;48.200;12.418;2022-12-24T10:12:56;96733.44;;;12.46;52.35
50977;BME280;36992;48.200;12.418;2022-12-24T10:15:33;96743.63;;;12.49;52.47
50977;BME280;36992;48.200;12.418;2022-12-24T10:18:21;96734.28;;;12.55;52.74
50977;BME280;36992;48.200;12.418;2022-12-24T10:20:55;96745.91;;;12.56;52.30
50977;BME280;36992;48.200;12.418;2022-12-24T10:23:29;96743.41;;;12.60;52.35
50977;BME280;36992;48.200;12.418;2022-12-24T10:26:08;96752.00;;;12.62;52.61
50977;BME280;36992;48.200;12.418;2022-12-24T10:28:41;96752.28;;;12.60;50.90
50977;BME280;36992;48.200;12.418;2022-12-24T10:31:09;96751.50;;;12.60;51.84
50977;BME280;36992;48.200;12.418;2022-12-24T10:33:41;96751.69;;;12.63;51.58
50977;BME280;36992;48.200;12.418;2022-12-24T10:36:11;96755.22;;;12.64;52.07
50977;BME280;36992;48.200;12.418;2022-12-24T10:38:40;96753.09;;;12.61;51.31
50977;BME280;36992;48.200;12.418;2022-12-24T10:41:07;96750.88;;;12.63;50.78
50977;BME280;36992;48.200;12.418;2022-12-24T10:43:34;96747.88;;;12.64;51.13
50977;BME280;36992;48.200;12.418;2022-12-24T10:46:05;96764.28;;;12.68;51.05
50977;BME280;36992;48.200;12.418;2022-12-24T10:48:39;96778.31;;;12.70;50.99
50977;BME280;36992;48.200;12.418;2022-12-24T10:51:12;96762.28;;;12.74;51.72
50977;BME280;36992;48.200;12.418;2022-12-24T10:53:43;96766.28;;;12.76;51.83
50977;BME280;36992;48.200;12.418;2022-12-24T10:56:15;96769.97;;;12.80;50.12
50977;BME280;36992;48.200;12.418;2022-12-24T10:58:43;96766.78;;;12.78;50.97
50977;BME280;36992;48.200;12.418;2022-12-24T11:01:10;96764.06;;;12.78;49.46
50977;BME280;36992;48.200;12.418;2022-12-24T11:03:38;96761.25;;;12.84;50.74
50977;BME280;36992;48.200;12.418;2022-12-24T11:06:09;96774.66;;;12.89;49.75
50977;BME280;36992;48.200;12.418;2022-12-24T11:08:38;96766.03;;;12.87;49.43
50977;BME280;36992;48.200;12.418;2022-12-24T11:11:06;96777.34;;;12.89;50.87
50977;BME280;36992;48.200;12.418;2022-12-24T11:13:36;96779.91;;;12.94;49.96
50977;BME280;36992;48.200;12.418;2022-12-24T11:16:06;96771.81;;;12.94;49.31
50977;BME280;36992;48.200;12.418;2022-12-24T11:18:35;96765.63;;;12.93;49.25
50977;BME280;36992;48.200;12.418;2022-12-24T11:21:05;96775.03;;;12.96;49.69
50977;BME280;36992;48.200;12.418;2022-12-24T11:23:32;96767.22;;;12.94;49.87
50977;BME280;36992;48.200;12.418;2022-12-24T11:25:58;96769.63;;;12.96;49.13
50977;BME280;36992;48.200;12.418;2022-12-24T11:28:27;96778.22;;;12.98;49.14
50977;BME280;36992;48.200;12.418;2022-12-24T11:30:59;96772.22;;;13.01;49.55
50977;BME280;36992;48.200;12.418;2022-12-24T11:33:28;96760.59;;;13.01;49.80
50977;BME280;36992;48.200;12.418;2022-12-24T11:35:59;96763.78;;;13.03;49.32
50977;BME280;36992;48.200;12.418;2022-12-24T11:38:30;96764.75;;;13.07;49.63
50977;BME280;36992;48.200;12.418;2022-12-24T11:40:59;96758.53;;;13.06;49.30
50977;BME280;36992;48.200;12.418;2022-12-24T11:43:27;96759.34;;;13.07;48.51
50977;BME280;36992;48.200;12.418;2022-12-24T11:46:18;96769.75;;;13.14;50.10
50977;BME280;36992;48.200;12.418;2022-12-24T11:48:46;96756.84;;;13.11;48.63
50977;BME280;36992;48.200;12.418;2022-12-24T11:51:23;96759.91;;;13.18;48.68
50977;BME280;36992;48.200;12.418;2022-12-24T11:53:58;96765.31;;;13.18;48.20
50977;BME280;36992;48.200;12.418;2022-12-24T11:56:32;96760.91;;;13.22;49.28
50977;BME280;36992;48.200;12.418;2022-12-24T11:59:08;96759.78;;;13.23;48.31
50977;BME280;36992;48.200;12.418;2022-12-24T12:01:37;96761.13;;;13.34;49.17
50977;BME280;36992;48.200;12.418;2022-12-24T12:04:12;96751.25;;;13.30;48.75
50977;BME280;36992;48.200;12.418;2022-12-24T12:06:43;96744.84;;;13.26;46.86
50977;BME280;36992;48.200;12.418;2022-12-24T12:09:16;96758.25;;;13.31;48.75
50977;BME280;36992;48.200;12.418;2022-12-24T12:11:46;96747.72;;;13.29;47.65
50977;BME280;36992;48.200;12.418;2022-12-24T12:14:19;96742.19;;;13.34;49.22
50977;BME280;36992;48.200;12.418;2022-12-24T12:16:49;96738.38;;;13.35;48.62
50977;BME280;36992;48.200;12.418;2022-12-24T12:19:31;96736.16;;;13.38;48.55
50977;BME280;36992;48.200;12.418;2022-12-24T12:22:03;96737.75;;;13.39;47.96
50977;BME280;36992;48.200;12.418;2022-12-24T12:24:35;96744.78;;;13.40;48.49
50977;BME280;36992;48.200;12.418;2022-12-24T12:27:12;96750.19;;;13.40;46.78
50977;BME280;36992;48.200;12.418;2022-12-24T12:29:45;96754.47;;;13.41;46.80
50977;BME280;36992;48.200;12.418;2022-12-24T12:32:24;96759.81;;;13.46;47.87
50977;BME280;36992;48.200;12.418;2022-12-24T12:34:58;96754.06;;;13.47;48.14
50977;BME280;36992;48.200;12.418;2022-12-24T12:37:32;96758.69;;;13.47;47.77
50977;BME280;36992;48.200;12.418;2022-12-24T12:40:02;96767.59;;;13.47;47.61
50977;BME280;36992;48.200;12.418;2022-12-24T12:42:31;96761.41;;;13.47;46.52
50977;BME280;36992;48.200;12.418;2022-12-24T12:45:09;96768.56;;;13.52;47.96
50977;BME280;36992;48.200;12.418;2022-12-24T12:47:54;96766.69;;;13.52;47.55
50977;BME280;36992;48.200;12.418;2022-12-24T12:50:30;96769.38;;;13.52;47.16
50977;BME280;36992;48.200;12.418;2022-12-24T12:53:19;96775.28;;;13.54;46.83
50977;BME280;36992;48.200;12.418;2022-12-24T12:55:55;96774.16;;;13.55;47.23
50977;BME280;36992;48.200;12.418;2022-12-24T12:58:28;96777.97;;;13.54;47.88
50977;BME280;36992;48.200;12.418;2022-12-24T13:00:59;96775.28;;;13.54;47.09